Aeroporto :
LOGIN :

Iscrizione | Disclaimer

   EN    FR    IT 

 










Sommario :    VFR   VFR Marginale   IFR   IFR Intensivo   IFR Molto Intensivo
Visibilità : 
Base nubi : 
>= 8 km
>= 3000ft
5 / 8 km
1000 / 3000 ft
1500m / 5 km
500 / 1000 ft
800 / 1500m
200 / 500 ft
< 800m
< 200 ft
Simboli :   Temporali  Nebbia  Neve Forte  Precipitazioni Forti  Vento > 20 kt
SIGMETs :   Varie  Temporali  Ghiacco  Turbolenza  Onda orograficha  Ceneri Vulcaniche







- Altitudine del aeroporto : 505 ft
- Codice IATA : SXB
- Carte del aeroporto


LFST - Strasbourg

ULTIMO METAR :
  • 121330Z AUTO 21007KT 180V240 9999 SCT039 BKN047 06/M01 Q1013 TEMPO BKN030TCU

METARs OBSOLETI :
  • 121300Z AUTO 21006KT 9999 BKN050 06/00 Q1012 TEMPO BKN030TCU
  • 121230Z AUTO 22008KT 9999 FEW028 SCT036 BKN044 05/01 Q1012 TEMPO BKN030TCU
  • 121200Z AUTO 20008KT 190V250 9999 FEW043 SCT064 BKN200 05/01 Q1012 TEMPO BKN030TCU
  • 121130Z AUTO 20009KT 9999 BKN054 BKN064 05/01 Q1011 TEMPO BKN030TCU
  • 121100Z AUTO 21007KT 9999 FEW029 BKN047 BKN058 05/02 Q1011 TEMPO SCT040TCU

TAF TAF LFST
Valido dal 12 a 12 ore il 13 a 12 ore UTC


121100Z 1212/1312 23010KT 9999 FEW025 BKN040
PROB30
TEMPO 1212/1218 -SHRA BKN030TCU
PROB30
TEMPO 1300/1305 5000 BR
PROB30
TEMPO 1310/1312 18013G23KT
PROB30
TEMPO 1311/1312 -RA
Nessun NOTAM noto per questo aeroporto.



MetMap, La meteo Aeronautica in un colpo d'occhio ! - Copyright ORBIFLY Dicembre 2007 - Disclaimer

ORBIFLY MET'MAP TEAM :

Programmazione e sviluppo : Alexandra Zaïnal
Concezione e sviluppo : Baudouin d'Aumeries
Co-Programmazione e sviluppo : Marc-Olivier Méhu
Supporto tecnico e logistico : Manuel Goepfert
Aiuto per la traduzione : Arnaldo La Scala

Contatto : metmap@orbifly.com




FONTI E CREDITI :

   NOAA